sensor_id;sensor_type;location;lat;lon;timestamp;temperature;humidity
24176;DHT22;12324;48.146;11.502;2023-11-21T00:00:08;6.80;99.90
24176;DHT22;12324;48.146;11.502;2023-11-21T00:02:39;6.70;99.90
24176;DHT22;12324;48.146;11.502;2023-11-21T00:05:08;6.70;99.90
24176;DHT22;12324;48.146;11.502;2023-11-21T00:07:37;6.70;99.90
24176;DHT22;12324;48.146;11.502;2023-11-21T00:10:04;6.70;99.90
24176;DHT22;12324;48.146;11.502;2023-11-21T00:12:37;6.70;99.90
24176;DHT22;12324;48.146;11.502;2023-11-21T00:15:05;6.70;99.90
24176;DHT22;12324;48.146;11.502;2023-11-21T00:17:32;6.60;99.90
24176;DHT22;12324;48.146;11.502;2023-11-21T00:19:59;6.60;99.90
24176;DHT22;12324;48.146;11.502;2023-11-21T00:22:25;6.50;99.90
24176;DHT22;12324;48.146;11.502;2023-11-21T00:24:52;6.50;99.90
24176;DHT22;12324;48.146;11.502;2023-11-21T00:27:19;6.50;99.90
24176;DHT22;12324;48.146;11.502;2023-11-21T00:29:46;6.50;99.90
24176;DHT22;12324;48.146;11.502;2023-11-21T00:34:41;6.50;99.90
24176;DHT22;12324;48.146;11.502;2023-11-21T00:44:40;6.40;99.90
24176;DHT22;12324;48.146;11.502;2023-11-21T00:47:06;6.50;99.90
24176;DHT22;12324;48.146;11.502;2023-11-21T00:49:34;6.50;99.90
24176;DHT22;12324;48.146;11.502;2023-11-21T00:52:01;6.50;99.90
24176;DHT22;12324;48.146;11.502;2023-11-21T00:54:29;6.50;99.90
24176;DHT22;12324;48.146;11.502;2023-11-21T00:56:59;6.50;99.90
24176;DHT22;12324;48.146;11.502;2023-11-21T00:59:25;6.50;99.90
24176;DHT22;12324;48.146;11.502;2023-11-21T01:01:52;6.40;99.90
24176;DHT22;12324;48.146;11.502;2023-11-21T01:04:20;6.40;99.90
24176;DHT22;12324;48.146;11.502;2023-11-21T01:06:47;6.40;99.90
24176;DHT22;12324;48.146;11.502;2023-11-21T01:09:14;6.30;99.90
24176;DHT22;12324;48.146;11.502;2023-11-21T01:11:40;6.30;99.90
24176;DHT22;12324;48.146;11.502;2023-11-21T01:14:07;6.30;99.90
24176;DHT22;12324;48.146;11.502;2023-11-21T01:16:35;6.30;99.90
24176;DHT22;12324;48.146;11.502;2023-11-21T01:19:02;6.20;99.90
24176;DHT22;12324;48.146;11.502;2023-11-21T01:21:28;6.20;99.90
24176;DHT22;12324;48.146;11.502;2023-11-21T01:23:55;6.30;99.90
24176;DHT22;12324;48.146;11.502;2023-11-21T01:26:22;6.20;99.90
24176;DHT22;12324;48.146;11.502;2023-11-21T01:28:49;6.20;99.90
24176;DHT22;12324;48.146;11.502;2023-11-21T01:31:15;6.20;99.90
24176;DHT22;12324;48.146;11.502;2023-11-21T01:33:43;6.20;99.90
24176;DHT22;12324;48.146;11.502;2023-11-21T01:36:10;6.20;99.90
24176;DHT22;12324;48.146;11.502;2023-11-21T01:38:37;6.10;99.90
24176;DHT22;12324;48.146;11.502;2023-11-21T01:41:04;6.10;99.90
24176;DHT22;12324;48.146;11.502;2023-11-21T01:43:31;6.20;99.90
24176;DHT22;12324;48.146;11.502;2023-11-21T01:45:58;6.20;99.90
24176;DHT22;12324;48.146;11.502;2023-11-21T01:48:25;6.20;99.90
24176;DHT22;12324;48.146;11.502;2023-11-21T01:50:52;6.30;99.90
24176;DHT22;12324;48.146;11.502;2023-11-21T01:53:19;6.20;99.90
24176;DHT22;12324;48.146;11.502;2023-11-21T01:55:47;6.30;99.90
24176;DHT22;12324;48.146;11.502;2023-11-21T01:58:14;6.30;99.90
24176;DHT22;12324;48.146;11.502;2023-11-21T02:00:40;6.40;99.90
24176;DHT22;12324;48.146;11.502;2023-11-21T02:03:07;6.50;99.90
24176;DHT22;12324;48.146;11.502;2023-11-21T02:05:34;6.40;99.90
24176;DHT22;12324;48.146;11.502;2023-11-21T02:08:02;6.40;99.90
24176;DHT22;12324;48.146;11.502;2023-11-21T02:10:30;6.40;99.90
24176;DHT22;12324;48.146;11.502;2023-11-21T02:12:58;6.60;99.90
24176;DHT22;12324;48.146;11.502;2023-11-21T02:15:25;6.60;99.90
24176;DHT22;12324;48.146;11.502;2023-11-21T02:17:55;6.60;99.90
24176;DHT22;12324;48.146;11.502;2023-11-21T02:20:22;6.60;99.90
24176;DHT22;12324;48.146;11.502;2023-11-21T02:22:52;6.60;99.90
24176;DHT22;12324;48.146;11.502;2023-11-21T02:25:28;6.60;99.90
24176;DHT22;12324;48.146;11.502;2023-11-21T02:27:56;6.50;99.90
24176;DHT22;12324;48.146;11.502;2023-11-21T02:30:24;6.40;99.90
24176;DHT22;12324;48.146;11.502;2023-11-21T02:33:01;6.40;99.90
24176;DHT22;12324;48.146;11.502;2023-11-21T02:35:28;6.40;99.90
24176;DHT22;12324;48.146;11.502;2023-11-21T02:37:58;6.40;99.90
24176;DHT22;12324;48.146;11.502;2023-11-21T02:40:25;6.30;99.90
24176;DHT22;12324;48.146;11.502;2023-11-21T02:42:53;6.50;99.90
24176;DHT22;12324;48.146;11.502;2023-11-21T02:45:20;6.40;99.90
24176;DHT22;12324;48.146;11.502;2023-11-21T02:47:48;6.50;99.90
24176;DHT22;12324;48.146;11.502;2023-11-21T02:50:16;6.40;99.90
24176;DHT22;12324;48.146;11.502;2023-11-21T02:52:45;6.40;99.90
24176;DHT22;12324;48.146;11.502;2023-11-21T02:55:12;6.40;99.90
24176;DHT22;12324;48.146;11.502;2023-11-21T02:57:39;6.40;99.90
24176;DHT22;12324;48.146;11.502;2023-11-21T03:00:06;6.40;99.90
24176;DHT22;12324;48.146;11.502;2023-11-21T03:02:34;6.30;99.90
24176;DHT22;12324;48.146;11.502;2023-11-21T03:05:07;6.40;99.90
24176;DHT22;12324;48.146;11.502;2023-11-21T03:07:37;6.30;99.90
24176;DHT22;12324;48.146;11.502;2023-11-21T03:10:05;6.30;99.90
24176;DHT22;12324;48.146;11.502;2023-11-21T03:12:32;6.40;99.90
24176;DHT22;12324;48.146;11.502;2023-11-21T03:14:59;6.30;99.90
24176;DHT22;12324;48.146;11.502;2023-11-21T03:17:26;6.40;99.90
24176;DHT22;12324;48.146;11.502;2023-11-21T03:19:52;6.40;99.90
24176;DHT22;12324;48.146;11.502;2023-11-21T03:22:19;6.50;99.90
24176;DHT22;12324;48.146;11.502;2023-11-21T03:24:46;6.40;99.90
24176;DHT22;12324;48.146;11.502;2023-11-21T03:27:13;6.40;99.90
24176;DHT22;12324;48.146;11.502;2023-11-21T03:29:40;6.50;99.90
24176;DHT22;12324;48.146;11.502;2023-11-21T03:32:07;6.40;99.90
24176;DHT22;12324;48.146;11.502;2023-11-21T03:34:34;6.50;99.90
24176;DHT22;12324;48.146;11.502;2023-11-21T03:37:01;6.50;99.90
24176;DHT22;12324;48.146;11.502;2023-11-21T03:39:28;6.50;99.90
24176;DHT22;12324;48.146;11.502;2023-11-21T03:41:56;6.50;99.90
24176;DHT22;12324;48.146;11.502;2023-11-21T03:44:22;6.50;99.90
24176;DHT22;12324;48.146;11.502;2023-11-21T03:46:49;6.50;99.90
24176;DHT22;12324;48.146;11.502;2023-11-21T03:49:16;6.50;99.90
24176;DHT22;12324;48.146;11.502;2023-11-21T03:51:43;6.40;99.90
24176;DHT22;12324;48.146;11.502;2023-11-21T03:54:09;6.50;99.90
24176;DHT22;12324;48.146;11.502;2023-11-21T03:56:36;6.40;99.90
24176;DHT22;12324;48.146;11.502;2023-11-21T03:59:03;6.40;99.90
24176;DHT22;12324;48.146;11.502;2023-11-21T04:01:30;6.30;99.90
24176;DHT22;12324;48.146;11.502;2023-11-21T04:03:56;6.30;99.90
24176;DHT22;12324;48.146;11.502;2023-11-21T04:06:23;6.30;99.90
24176;DHT22;12324;48.146;11.502;2023-11-21T04:08:50;6.30;99.90
24176;DHT22;12324;48.146;11.502;2023-11-21T04:11:17;6.30;99.90
24176;DHT22;12324;48.146;11.502;2023-11-21T04:13:44;6.30;99.90
24176;DHT22;12324;48.146;11.502;2023-11-21T04:16:12;6.30;99.90
24176;DHT22;12324;48.146;11.502;2023-11-21T04:18:39;6.40;99.90
24176;DHT22;12324;48.146;11.502;2023-11-21T04:21:06;6.60;99.90
24176;DHT22;12324;48.146;11.502;2023-11-21T04:23:33;6.60;99.90
24176;DHT22;12324;48.146;11.502;2023-11-21T04:26:00;6.60;99.90
24176;DHT22;12324;48.146;11.502;2023-11-21T04:28:28;6.70;99.90
24176;DHT22;12324;48.146;11.502;2023-11-21T04:30:55;6.70;99.90
24176;DHT22;12324;48.146;11.502;2023-11-21T04:33:22;6.80;99.90
24176;DHT22;12324;48.146;11.502;2023-11-21T04:35:49;6.80;99.90
24176;DHT22;12324;48.146;11.502;2023-11-21T04:38:16;6.80;99.90
24176;DHT22;12324;48.146;11.502;2023-11-21T04:40:43;6.80;99.90
24176;DHT22;12324;48.146;11.502;2023-11-21T04:43:09;6.70;99.90
24176;DHT22;12324;48.146;11.502;2023-11-21T04:45:36;6.70;99.90
24176;DHT22;12324;48.146;11.502;2023-11-21T04:48:03;6.80;99.90
24176;DHT22;12324;48.146;11.502;2023-11-21T04:50:30;6.80;99.90
24176;DHT22;12324;48.146;11.502;2023-11-21T04:52:57;6.80;99.90
24176;DHT22;12324;48.146;11.502;2023-11-21T04:55:24;6.70;99.90
24176;DHT22;12324;48.146;11.502;2023-11-21T04:57:54;6.70;99.90
24176;DHT22;12324;48.146;11.502;2023-11-21T05:00:21;6.70;99.90
24176;DHT22;12324;48.146;11.502;2023-11-21T05:02:48;6.50;99.90
24176;DHT22;12324;48.146;11.502;2023-11-21T05:05:15;6.60;99.90
24176;DHT22;12324;48.146;11.502;2023-11-21T05:07:42;6.50;99.90
24176;DHT22;12324;48.146;11.502;2023-11-21T05:10:09;6.50;99.90
24176;DHT22;12324;48.146;11.502;2023-11-21T05:12:39;6.40;99.90
24176;DHT22;12324;48.146;11.502;2023-11-21T05:15:07;6.40;99.90
24176;DHT22;12324;48.146;11.502;2023-11-21T05:17:38;6.40;99.90
24176;DHT22;12324;48.146;11.502;2023-11-21T05:20:10;6.40;99.90
24176;DHT22;12324;48.146;11.502;2023-11-21T05:22:37;6.40;99.90
24176;DHT22;12324;48.146;11.502;2023-11-21T05:25:05;6.40;99.90
24176;DHT22;12324;48.146;11.502;2023-11-21T05:27:34;6.30;99.90
24176;DHT22;12324;48.146;11.502;2023-11-21T05:30:02;6.30;99.90
24176;DHT22;12324;48.146;11.502;2023-11-21T05:32:32;6.30;99.90
24176;DHT22;12324;48.146;11.502;2023-11-21T05:34:59;6.40;99.90
24176;DHT22;12324;48.146;11.502;2023-11-21T05:37:27;6.40;99.90
24176;DHT22;12324;48.146;11.502;2023-11-21T05:39:53;6.50;99.90
24176;DHT22;12324;48.146;11.502;2023-11-21T05:42:23;6.50;99.90
24176;DHT22;12324;48.146;11.502;2023-11-21T05:44:50;6.40;99.90
24176;DHT22;12324;48.146;11.502;2023-11-21T05:47:17;6.50;99.90
24176;DHT22;12324;48.146;11.502;2023-11-21T05:49:44;6.50;99.90
24176;DHT22;12324;48.146;11.502;2023-11-21T05:52:12;6.50;99.90
24176;DHT22;12324;48.146;11.502;2023-11-21T05:54:39;6.50;99.90
24176;DHT22;12324;48.146;11.502;2023-11-21T05:57:05;6.50;99.90
24176;DHT22;12324;48.146;11.502;2023-11-21T05:59:32;6.50;99.90
24176;DHT22;12324;48.146;11.502;2023-11-21T06:01:59;6.50;99.90
24176;DHT22;12324;48.146;11.502;2023-11-21T06:04:25;6.40;99.90
24176;DHT22;12324;48.146;11.502;2023-11-21T06:06:53;6.50;99.90
24176;DHT22;12324;48.146;11.502;2023-11-21T06:09:20;6.50;99.90
24176;DHT22;12324;48.146;11.502;2023-11-21T06:11:47;6.50;99.90
24176;DHT22;12324;48.146;11.502;2023-11-21T06:14:14;6.50;99.90
24176;DHT22;12324;48.146;11.502;2023-11-21T06:16:44;6.50;99.90
24176;DHT22;12324;48.146;11.502;2023-11-21T06:19:12;6.60;99.90
24176;DHT22;12324;48.146;11.502;2023-11-21T06:21:39;6.50;99.90
24176;DHT22;12324;48.146;11.502;2023-11-21T06:24:05;6.50;99.90
24176;DHT22;12324;48.146;11.502;2023-11-21T06:26:33;6.60;99.90
24176;DHT22;12324;48.146;11.502;2023-11-21T06:29:01;6.60;99.90
24176;DHT22;12324;48.146;11.502;2023-11-21T06:31:29;6.50;99.90
24176;DHT22;12324;48.146;11.502;2023-11-21T06:33:56;6.60;99.90
24176;DHT22;12324;48.146;11.502;2023-11-21T06:36:24;6.60;99.90
24176;DHT22;12324;48.146;11.502;2023-11-21T06:38:51;6.60;99.90
24176;DHT22;12324;48.146;11.502;2023-11-21T06:41:18;6.60;99.90
24176;DHT22;12324;48.146;11.502;2023-11-21T06:43:44;6.60;99.90
24176;DHT22;12324;48.146;11.502;2023-11-21T06:46:13;6.60;99.90
24176;DHT22;12324;48.146;11.502;2023-11-21T06:48:42;6.70;99.90
24176;DHT22;12324;48.146;11.502;2023-11-21T06:51:10;6.70;99.90
24176;DHT22;12324;48.146;11.502;2023-11-21T06:53:37;6.70;99.90
24176;DHT22;12324;48.146;11.502;2023-11-21T06:56:14;6.60;99.90
24176;DHT22;12324;48.146;11.502;2023-11-21T06:58:41;6.60;99.90
24176;DHT22;12324;48.146;11.502;2023-11-21T07:01:08;6.70;99.90
24176;DHT22;12324;48.146;11.502;2023-11-21T07:03:39;6.60;99.90
24176;DHT22;12324;48.146;11.502;2023-11-21T07:06:08;6.60;99.90
24176;DHT22;12324;48.146;11.502;2023-11-21T07:08:34;6.70;99.90
24176;DHT22;12324;48.146;11.502;2023-11-21T07:11:01;6.60;99.90
24176;DHT22;12324;48.146;11.502;2023-11-21T07:13:30;6.70;99.90
24176;DHT22;12324;48.146;11.502;2023-11-21T07:16:00;6.70;99.90
24176;DHT22;12324;48.146;11.502;2023-11-21T07:18:27;6.70;99.90
24176;DHT22;12324;48.146;11.502;2023-11-21T07:20:54;6.70;99.90
24176;DHT22;12324;48.146;11.502;2023-11-21T07:23:20;6.70;99.90
24176;DHT22;12324;48.146;11.502;2023-11-21T07:25:49;6.70;99.90
24176;DHT22;12324;48.146;11.502;2023-11-21T07:28:15;6.80;99.90
24176;DHT22;12324;48.146;11.502;2023-11-21T07:30:42;6.80;99.90
24176;DHT22;12324;48.146;11.502;2023-11-21T07:33:09;6.80;99.90
24176;DHT22;12324;48.146;11.502;2023-11-21T07:35:36;6.80;99.90
24176;DHT22;12324;48.146;11.502;2023-11-21T07:38:03;6.90;99.90
24176;DHT22;12324;48.146;11.502;2023-11-21T07:40:30;7.10;99.90
24176;DHT22;12324;48.146;11.502;2023-11-21T07:42:57;7.10;99.90
24176;DHT22;12324;48.146;11.502;2023-11-21T07:45:24;7.20;99.90
24176;DHT22;12324;48.146;11.502;2023-11-21T07:47:54;7.20;99.90
24176;DHT22;12324;48.146;11.502;2023-11-21T07:50:22;7.00;99.90
24176;DHT22;12324;48.146;11.502;2023-11-21T07:52:49;7.00;99.90
24176;DHT22;12324;48.146;11.502;2023-11-21T07:55:16;7.00;99.90
24176;DHT22;12324;48.146;11.502;2023-11-21T07:57:43;7.00;99.90
24176;DHT22;12324;48.146;11.502;2023-11-21T08:00:10;7.00;99.90
24176;DHT22;12324;48.146;11.502;2023-11-21T08:02:39;7.00;99.90
24176;DHT22;12324;48.146;11.502;2023-11-21T08:05:09;7.00;99.90
24176;DHT22;12324;48.146;11.502;2023-11-21T08:07:47;7.00;99.90
24176;DHT22;12324;48.146;11.502;2023-11-21T08:10:14;7.10;99.90
24176;DHT22;12324;48.146;11.502;2023-11-21T08:12:41;7.00;99.90
24176;DHT22;12324;48.146;11.502;2023-11-21T08:15:09;7.10;99.90
24176;DHT22;12324;48.146;11.502;2023-11-21T08:17:36;7.00;99.90
24176;DHT22;12324;48.146;11.502;2023-11-21T08:20:03;7.20;99.90
24176;DHT22;12324;48.146;11.502;2023-11-21T08:22:31;7.10;99.90
24176;DHT22;12324;48.146;11.502;2023-11-21T08:24:58;7.10;99.90
24176;DHT22;12324;48.146;11.502;2023-11-21T08:27:24;7.20;99.90
24176;DHT22;12324;48.146;11.502;2023-11-21T08:29:51;7.20;99.90
24176;DHT22;12324;48.146;11.502;2023-11-21T08:32:18;7.30;99.90
24176;DHT22;12324;48.146;11.502;2023-11-21T08:34:45;7.20;99.90
24176;DHT22;12324;48.146;11.502;2023-11-21T08:37:15;7.40;99.90
24176;DHT22;12324;48.146;11.502;2023-11-21T08:39:43;7.50;99.90
24176;DHT22;12324;48.146;11.502;2023-11-21T08:42:09;7.40;99.90
24176;DHT22;12324;48.146;11.502;2023-11-21T08:44:36;7.40;99.90
24176;DHT22;12324;48.146;11.502;2023-11-21T08:47:05;7.40;99.90
24176;DHT22;12324;48.146;11.502;2023-11-21T08:49:34;7.80;99.90
24176;DHT22;12324;48.146;11.502;2023-11-21T08:52:01;7.60;99.90
24176;DHT22;12324;48.146;11.502;2023-11-21T08:54:28;7.80;99.90
24176;DHT22;12324;48.146;11.502;2023-11-21T08:56:55;7.70;99.90
24176;DHT22;12324;48.146;11.502;2023-11-21T08:59:21;7.60;99.90
24176;DHT22;12324;48.146;11.502;2023-11-21T09:01:48;7.60;99.90
24176;DHT22;12324;48.146;11.502;2023-11-21T09:04:15;7.60;99.90
24176;DHT22;12324;48.146;11.502;2023-11-21T09:06:42;7.70;99.90
24176;DHT22;12324;48.146;11.502;2023-11-21T09:09:09;7.70;99.90
24176;DHT22;12324;48.146;11.502;2023-11-21T09:11:37;7.80;99.90
24176;DHT22;12324;48.146;11.502;2023-11-21T09:14:03;7.90;99.90
24176;DHT22;12324;48.146;11.502;2023-11-21T09:16:30;7.90;99.90
24176;DHT22;12324;48.146;11.502;2023-11-21T09:18:58;7.80;99.90
24176;DHT22;12324;48.146;11.502;2023-11-21T09:21:28;7.80;99.90
24176;DHT22;12324;48.146;11.502;2023-11-21T09:23:55;7.70;99.90
24176;DHT22;12324;48.146;11.502;2023-11-21T09:26:21;7.70;99.90
24176;DHT22;12324;48.146;11.502;2023-11-21T09:28:48;7.60;99.90
24176;DHT22;12324;48.146;11.502;2023-11-21T09:31:15;7.60;99.90
24176;DHT22;12324;48.146;11.502;2023-11-21T09:33:43;7.70;99.90
24176;DHT22;12324;48.146;11.502;2023-11-21T09:36:13;7.80;99.90
24176;DHT22;12324;48.146;11.502;2023-11-21T09:38:41;7.80;99.90
24176;DHT22;12324;48.146;11.502;2023-11-21T09:41:20;7.80;99.90
24176;DHT22;12324;48.146;11.502;2023-11-21T09:43:49;7.80;99.90
24176;DHT22;12324;48.146;11.502;2023-11-21T09:46:20;7.90;99.90
24176;DHT22;12324;48.146;11.502;2023-11-21T09:48:51;8.00;99.90
24176;DHT22;12324;48.146;11.502;2023-11-21T09:53:52;8.10;99.90
24176;DHT22;12324;48.146;11.502;2023-11-21T10:11:25;8.30;99.90
24176;DHT22;12324;48.146;11.502;2023-11-21T10:13:54;8.50;99.90
24176;DHT22;12324;48.146;11.502;2023-11-21T10:16:26;8.40;99.90
24176;DHT22;12324;48.146;11.502;2023-11-21T10:18:53;8.40;99.90
24176;DHT22;12324;48.146;11.502;2023-11-21T10:21:38;8.40;99.90
24176;DHT22;12324;48.146;11.502;2023-11-21T10:24:06;8.30;99.90
24176;DHT22;12324;48.146;11.502;2023-11-21T11:22:37;9.40;99.90
24176;DHT22;12324;48.146;11.502;2023-11-21T11:28:11;9.40;99.90
24176;DHT22;12324;48.146;11.502;2023-11-21T11:33:48;9.20;99.90
24176;DHT22;12324;48.146;11.502;2023-11-21T11:36:28;9.20;99.90
24176;DHT22;12324;48.146;11.502;2023-11-21T11:38:55;9.10;99.90
24176;DHT22;12324;48.146;11.502;2023-11-21T11:41:27;9.20;99.90
24176;DHT22;12324;48.146;11.502;2023-11-21T11:43:54;9.10;99.90
24176;DHT22;12324;48.146;11.502;2023-11-21T11:49:08;9.00;99.90
24176;DHT22;12324;48.146;11.502;2023-11-21T11:51:35;9.00;99.90
24176;DHT22;12324;48.146;11.502;2023-11-21T11:54:02;9.10;99.90
24176;DHT22;12324;48.146;11.502;2023-11-21T11:56:31;9.20;99.90
24176;DHT22;12324;48.146;11.502;2023-11-21T11:59:02;9.30;99.90
24176;DHT22;12324;48.146;11.502;2023-11-21T12:06:42;9.40;99.90
24176;DHT22;12324;48.146;11.502;2023-11-21T12:09:18;9.60;99.90
24176;DHT22;12324;48.146;11.502;2023-11-21T12:11:46;9.50;99.90
24176;DHT22;12324;48.146;11.502;2023-11-21T12:14:16;9.60;99.90
24176;DHT22;12324;48.146;11.502;2023-11-21T12:16:44;9.70;99.90
24176;DHT22;12324;48.146;11.502;2023-11-21T12:19:12;9.90;99.90
24176;DHT22;12324;48.146;11.502;2023-11-21T12:21:39;9.90;99.90
24176;DHT22;12324;48.146;11.502;2023-11-21T12:24:08;9.70;99.90
24176;DHT22;12324;48.146;11.502;2023-11-21T12:26:35;9.70;99.90
24176;DHT22;12324;48.146;11.502;2023-11-21T12:29:05;9.60;99.90
24176;DHT22;12324;48.146;11.502;2023-11-21T12:31:34;9.40;99.90
24176;DHT22;12324;48.146;11.502;2023-11-21T12:34:01;9.50;99.90
24176;DHT22;12324;48.146;11.502;2023-11-21T12:36:29;9.30;99.90
24176;DHT22;12324;48.146;11.502;2023-11-21T12:38:56;9.20;99.90
24176;DHT22;12324;48.146;11.502;2023-11-21T12:41:23;9.10;99.90
24176;DHT22;12324;48.146;11.502;2023-11-21T12:43:50;9.20;99.90
24176;DHT22;12324;48.146;11.502;2023-11-21T12:46:17;8.90;99.90
24176;DHT22;12324;48.146;11.502;2023-11-21T12:48:45;9.00;99.90
24176;DHT22;12324;48.146;11.502;2023-11-21T12:51:15;9.00;99.90
24176;DHT22;12324;48.146;11.502;2023-11-21T12:56:12;8.90;99.90
24176;DHT22;12324;48.146;11.502;2023-11-21T12:58:40;8.90;99.90
24176;DHT22;12324;48.146;11.502;2023-11-21T13:01:13;8.90;99.90
24176;DHT22;12324;48.146;11.502;2023-11-21T13:03:49;9.10;99.90
24176;DHT22;12324;48.146;11.502;2023-11-21T13:13:42;9.00;99.90
24176;DHT22;12324;48.146;11.502;2023-11-21T13:16:10;9.00;99.90
24176;DHT22;12324;48.146;11.502;2023-11-21T13:18:37;9.00;99.90
24176;DHT22;12324;48.146;11.502;2023-11-21T13:21:09;9.10;99.90
24176;DHT22;12324;48.146;11.502;2023-11-21T13:23:43;9.00;99.90
24176;DHT22;12324;48.146;11.502;2023-11-21T13:26:12;9.00;99.90
24176;DHT22;12324;48.146;11.502;2023-11-21T13:28:41;9.00;99.90
24176;DHT22;12324;48.146;11.502;2023-11-21T13:31:13;9.10;99.90
24176;DHT22;12324;48.146;11.502;2023-11-21T13:34:09;9.00;99.90
24176;DHT22;12324;48.146;11.502;2023-11-21T13:36:35;9.00;99.90
24176;DHT22;12324;48.146;11.502;2023-11-21T13:39:03;9.00;99.90
24176;DHT22;12324;48.146;11.502;2023-11-21T13:41:34;8.90;99.90
24176;DHT22;12324;48.146;11.502;2023-11-21T13:44:01;8.90;99.90
24176;DHT22;12324;48.146;11.502;2023-11-21T13:46:52;8.90;99.90
24176;DHT22;12324;48.146;11.502;2023-11-21T13:49:19;8.70;99.90
24176;DHT22;12324;48.146;11.502;2023-11-21T13:51:48;8.20;99.90
24176;DHT22;12324;48.146;11.502;2023-11-21T13:54:18;7.90;99.90
24176;DHT22;12324;48.146;11.502;2023-11-21T13:56:46;7.70;99.90
24176;DHT22;12324;48.146;11.502;2023-11-21T13:59:16;7.80;99.90
24176;DHT22;12324;48.146;11.502;2023-11-21T14:01:50;7.70;99.90
24176;DHT22;12324;48.146;11.502;2023-11-21T14:04:26;7.90;99.90
24176;DHT22;12324;48.146;11.502;2023-11-21T14:06:56;7.70;99.90
24176;DHT22;12324;48.146;11.502;2023-11-21T14:09:25;7.50;99.90
24176;DHT22;12324;48.146;11.502;2023-11-21T14:11:59;7.30;99.90
24176;DHT22;12324;48.146;11.502;2023-11-21T14:14:27;7.30;99.90
24176;DHT22;12324;48.146;11.502;2023-11-21T14:16:54;7.20;99.90
24176;DHT22;12324;48.146;11.502;2023-11-21T14:19:25;7.30;99.90
24176;DHT22;12324;48.146;11.502;2023-11-21T14:26:53;7.10;99.90
24176;DHT22;12324;48.146;11.502;2023-11-21T14:29:20;7.20;99.90
24176;DHT22;12324;48.146;11.502;2023-11-21T14:31:47;7.10;99.90
24176;DHT22;12324;48.146;11.502;2023-11-21T14:34:14;7.10;99.90
24176;DHT22;12324;48.146;11.502;2023-11-21T14:36:46;7.00;99.90
24176;DHT22;12324;48.146;11.502;2023-11-21T14:39:12;7.10;99.90
24176;DHT22;12324;48.146;11.502;2023-11-21T14:46:52;7.60;99.90
24176;DHT22;12324;48.146;11.502;2023-11-21T14:49:24;7.20;99.90
24176;DHT22;12324;48.146;11.502;2023-11-21T14:51:54;7.30;99.90
24176;DHT22;12324;48.146;11.502;2023-11-21T14:54:29;7.20;99.90
24176;DHT22;12324;48.146;11.502;2023-11-21T14:57:13;7.10;99.90
24176;DHT22;12324;48.146;11.502;2023-11-21T14:59:48;7.20;99.90
24176;DHT22;12324;48.146;11.502;2023-11-21T15:02:19;7.30;99.90
24176;DHT22;12324;48.146;11.502;2023-11-21T15:05:06;7.30;99.90
24176;DHT22;12324;48.146;11.502;2023-11-21T15:07:35;7.30;99.90
24176;DHT22;12324;48.146;11.502;2023-11-21T15:10:02;7.30;99.90
24176;DHT22;12324;48.146;11.502;2023-11-21T15:12:29;7.20;99.90
24176;DHT22;12324;48.146;11.502;2023-11-21T15:15:00;7.20;99.90
24176;DHT22;12324;48.146;11.502;2023-11-21T15:17:27;7.20;99.90
24176;DHT22;12324;48.146;11.502;2023-11-21T15:19:57;7.10;99.90
24176;DHT22;12324;48.146;11.502;2023-11-21T15:22:24;7.10;99.90
24176;DHT22;12324;48.146;11.502;2023-11-21T15:24:52;7.10;99.90
24176;DHT22;12324;48.146;11.502;2023-11-21T15:27:20;7.10;99.90
24176;DHT22;12324;48.146;11.502;2023-11-21T15:29:47;7.10;99.90
24176;DHT22;12324;48.146;11.502;2023-11-21T15:32:16;7.10;99.90
24176;DHT22;12324;48.146;11.502;2023-11-21T15:34:43;7.00;99.90
24176;DHT22;12324;48.146;11.502;2023-11-21T15:37:09;7.10;99.90
24176;DHT22;12324;48.146;11.502;2023-11-21T15:39:39;7.10;99.90
24176;DHT22;12324;48.146;11.502;2023-11-21T15:42:06;7.10;99.90
24176;DHT22;12324;48.146;11.502;2023-11-21T15:54:30;6.30;99.90
24176;DHT22;12324;48.146;11.502;2023-11-21T15:56:57;7.10;99.90
24176;DHT22;12324;48.146;11.502;2023-11-21T15:59:26;7.20;99.90
24176;DHT22;12324;48.146;11.502;2023-11-21T16:01:59;7.00;99.90
24176;DHT22;12324;48.146;11.502;2023-11-21T16:04:27;6.70;99.90
24176;DHT22;12324;48.146;11.502;2023-11-21T16:06:54;6.60;99.90
24176;DHT22;12324;48.146;11.502;2023-11-21T16:09:21;7.10;99.90
24176;DHT22;12324;48.146;11.502;2023-11-21T16:11:50;6.90;99.90
24176;DHT22;12324;48.146;11.502;2023-11-21T16:14:27;6.90;99.90
24176;DHT22;12324;48.146;11.502;2023-11-21T16:17:02;7.00;99.90
24176;DHT22;12324;48.146;11.502;2023-11-21T16:19:29;7.00;99.90
24176;DHT22;12324;48.146;11.502;2023-11-21T16:21:56;6.90;99.90
24176;DHT22;12324;48.146;11.502;2023-11-21T16:24:23;7.00;99.90
24176;DHT22;12324;48.146;11.502;2023-11-21T16:26:52;7.00;99.90
24176;DHT22;12324;48.146;11.502;2023-11-21T16:29:19;7.00;99.90
24176;DHT22;12324;48.146;11.502;2023-11-21T16:31:46;7.10;99.90
24176;DHT22;12324;48.146;11.502;2023-11-21T16:34:15;7.10;99.90
24176;DHT22;12324;48.146;11.502;2023-11-21T16:36:46;6.90;99.90
24176;DHT22;12324;48.146;11.502;2023-11-21T16:39:14;6.80;99.90
24176;DHT22;12324;48.146;11.502;2023-11-21T16:41:41;6.80;99.90
24176;DHT22;12324;48.146;11.502;2023-11-21T16:44:16;6.80;99.90
24176;DHT22;12324;48.146;11.502;2023-11-21T16:46:47;6.90;99.90
24176;DHT22;12324;48.146;11.502;2023-11-21T16:49:16;6.80;99.90
24176;DHT22;12324;48.146;11.502;2023-11-21T16:51:43;6.80;99.90
24176;DHT22;12324;48.146;11.502;2023-11-21T16:54:10;6.60;99.90
24176;DHT22;12324;48.146;11.502;2023-11-21T16:56:37;6.60;99.90
24176;DHT22;12324;48.146;11.502;2023-11-21T16:59:04;6.60;99.90
24176;DHT22;12324;48.146;11.502;2023-11-21T17:01:30;6.70;99.90
24176;DHT22;12324;48.146;11.502;2023-11-21T17:03:57;6.70;99.90
24176;DHT22;12324;48.146;11.502;2023-11-21T17:06:25;6.60;99.90
24176;DHT22;12324;48.146;11.502;2023-11-21T17:08:53;6.30;99.90
24176;DHT22;12324;48.146;11.502;2023-11-21T17:11:20;6.50;99.90
24176;DHT22;12324;48.146;11.502;2023-11-21T17:13:47;6.50;99.90
24176;DHT22;12324;48.146;11.502;2023-11-21T17:41:04;6.50;99.90
24176;DHT22;12324;48.146;11.502;2023-11-21T17:43:31;6.10;99.90
24176;DHT22;12324;48.146;11.502;2023-11-21T17:46:06;6.20;99.90
24176;DHT22;12324;48.146;11.502;2023-11-21T17:48:35;6.40;99.90
24176;DHT22;12324;48.146;11.502;2023-11-21T17:51:03;6.50;99.90
24176;DHT22;12324;48.146;11.502;2023-11-21T17:53:30;6.50;99.90
24176;DHT22;12324;48.146;11.502;2023-11-21T17:55:56;6.40;99.90
24176;DHT22;12324;48.146;11.502;2023-11-21T17:58:23;6.30;99.90
24176;DHT22;12324;48.146;11.502;2023-11-21T18:00:50;6.30;99.90
24176;DHT22;12324;48.146;11.502;2023-11-21T18:03:17;6.20;99.90
24176;DHT22;12324;48.146;11.502;2023-11-21T18:05:44;6.30;99.90
24176;DHT22;12324;48.146;11.502;2023-11-21T18:08:10;6.30;99.90